sensor_id;sensor_type;location;lat;lon;timestamp;temperature;humidity
30999;DHT22;20549;50.042;8.968;2022-09-03T00:01:58;19.90;45.30
30999;DHT22;20549;50.042;8.968;2022-09-03T00:04:27;19.90;45.30
30999;DHT22;20549;50.042;8.968;2022-09-03T00:06:57;19.90;45.40
30999;DHT22;20549;50.042;8.968;2022-09-03T00:09:26;19.90;45.40
30999;DHT22;20549;50.042;8.968;2022-09-03T00:12:10;19.90;45.60
30999;DHT22;20549;50.042;8.968;2022-09-03T00:17:24;19.90;45.70
30999;DHT22;20549;50.042;8.968;2022-09-03T00:22:32;19.90;45.80
30999;DHT22;20549;50.042;8.968;2022-09-03T00:24:58;19.90;45.80
30999;DHT22;20549;50.042;8.968;2022-09-03T00:27:25;19.90;45.80
30999;DHT22;20549;50.042;8.968;2022-09-03T00:29:53;19.90;46.00
30999;DHT22;20549;50.042;8.968;2022-09-03T00:32:23;19.90;46.00
30999;DHT22;20549;50.042;8.968;2022-09-03T00:34:50;19.90;46.00
30999;DHT22;20549;50.042;8.968;2022-09-03T00:37:16;19.90;46.00
30999;DHT22;20549;50.042;8.968;2022-09-03T00:39:43;19.90;46.20
30999;DHT22;20549;50.042;8.968;2022-09-03T00:44:57;19.90;46.30
30999;DHT22;20549;50.042;8.968;2022-09-03T00:47:26;19.90;46.10
30999;DHT22;20549;50.042;8.968;2022-09-03T00:50:11;20.00;46.20
30999;DHT22;20549;50.042;8.968;2022-09-03T00:52:50;20.00;46.30
30999;DHT22;20549;50.042;8.968;2022-09-03T00:58:03;20.00;46.40
30999;DHT22;20549;50.042;8.968;2022-09-03T01:00:24;20.00;47.00
30999;DHT22;20549;50.042;8.968;2022-09-03T01:03:02;20.00;46.30
30999;DHT22;20549;50.042;8.968;2022-09-03T01:08:19;19.90;46.40
30999;DHT22;20549;50.042;8.968;2022-09-03T01:13:33;19.90;46.40
30999;DHT22;20549;50.042;8.968;2022-09-03T01:18:34;19.90;46.50
30999;DHT22;20549;50.042;8.968;2022-09-03T01:29:44;19.80;46.70
30999;DHT22;20549;50.042;8.968;2022-09-03T01:32:18;19.80;46.70
30999;DHT22;20549;50.042;8.968;2022-09-03T01:40:17;19.70;47.00
30999;DHT22;20549;50.042;8.968;2022-09-03T01:42:51;19.60;47.10
30999;DHT22;20549;50.042;8.968;2022-09-03T01:45:30;19.60;47.10
30999;DHT22;20549;50.042;8.968;2022-09-03T01:48:09;19.60;47.20
30999;DHT22;20549;50.042;8.968;2022-09-03T01:50:40;19.60;47.30
30999;DHT22;20549;50.042;8.968;2022-09-03T01:56:06;19.60;47.50
30999;DHT22;20549;50.042;8.968;2022-09-03T01:58:48;19.50;47.50
30999;DHT22;20549;50.042;8.968;2022-09-03T02:00:59;19.50;47.60
30999;DHT22;20549;50.042;8.968;2022-09-03T02:03:23;19.50;47.70
30999;DHT22;20549;50.042;8.968;2022-09-03T02:05:50;19.50;47.90
30999;DHT22;20549;50.042;8.968;2022-09-03T02:08:16;19.50;47.90
30999;DHT22;20549;50.042;8.968;2022-09-03T02:10:52;19.50;48.70
30999;DHT22;20549;50.042;8.968;2022-09-03T02:13:28;19.50;48.10
30999;DHT22;20549;50.042;8.968;2022-09-03T02:15:55;19.50;48.20
30999;DHT22;20549;50.042;8.968;2022-09-03T02:18:24;19.50;48.20
30999;DHT22;20549;50.042;8.968;2022-09-03T02:20:51;19.50;48.20
30999;DHT22;20549;50.042;8.968;2022-09-03T02:23:16;19.60;48.30
30999;DHT22;20549;50.042;8.968;2022-09-03T02:25:54;19.60;48.30
30999;DHT22;20549;50.042;8.968;2022-09-03T02:28:15;19.60;48.30
30999;DHT22;20549;50.042;8.968;2022-09-03T02:30:42;19.60;48.40
30999;DHT22;20549;50.042;8.968;2022-09-03T02:33:08;19.60;48.30
30999;DHT22;20549;50.042;8.968;2022-09-03T02:35:35;19.60;48.30
30999;DHT22;20549;50.042;8.968;2022-09-03T02:38:15;19.60;48.40
30999;DHT22;20549;50.042;8.968;2022-09-03T02:40:40;19.60;48.40
30999;DHT22;20549;50.042;8.968;2022-09-03T02:43:07;19.70;48.40
30999;DHT22;20549;50.042;8.968;2022-09-03T02:45:33;19.70;48.50
30999;DHT22;20549;50.042;8.968;2022-09-03T02:48:00;19.70;48.60
30999;DHT22;20549;50.042;8.968;2022-09-03T02:50:26;19.70;49.00
30999;DHT22;20549;50.042;8.968;2022-09-03T02:52:53;19.70;48.60
30999;DHT22;20549;50.042;8.968;2022-09-03T02:55:19;19.70;48.60
30999;DHT22;20549;50.042;8.968;2022-09-03T02:57:46;19.80;48.60
30999;DHT22;20549;50.042;8.968;2022-09-03T03:00:13;19.80;48.50
30999;DHT22;20549;50.042;8.968;2022-09-03T03:02:39;19.80;48.50
30999;DHT22;20549;50.042;8.968;2022-09-03T03:05:06;19.80;48.60
30999;DHT22;20549;50.042;8.968;2022-09-03T03:07:33;19.80;48.60
30999;DHT22;20549;50.042;8.968;2022-09-03T03:09:59;19.90;48.70
30999;DHT22;20549;50.042;8.968;2022-09-03T03:12:26;19.90;48.70
30999;DHT22;20549;50.042;8.968;2022-09-03T03:14:52;19.90;48.70
30999;DHT22;20549;50.042;8.968;2022-09-03T03:17:19;19.90;48.70
30999;DHT22;20549;50.042;8.968;2022-09-03T03:19:45;19.90;48.80
30999;DHT22;20549;50.042;8.968;2022-09-03T03:22:12;19.90;48.80
30999;DHT22;20549;50.042;8.968;2022-09-03T03:24:39;20.00;48.90
30999;DHT22;20549;50.042;8.968;2022-09-03T03:27:05;20.00;48.80
30999;DHT22;20549;50.042;8.968;2022-09-03T03:29:32;20.00;48.80
30999;DHT22;20549;50.042;8.968;2022-09-03T03:31:58;20.00;48.80
30999;DHT22;20549;50.042;8.968;2022-09-03T03:34:25;20.00;48.80
30999;DHT22;20549;50.042;8.968;2022-09-03T03:36:51;20.00;48.80
30999;DHT22;20549;50.042;8.968;2022-09-03T03:39:18;20.10;48.80
30999;DHT22;20549;50.042;8.968;2022-09-03T03:41:45;20.10;48.80
30999;DHT22;20549;50.042;8.968;2022-09-03T03:44:11;20.10;48.80
30999;DHT22;20549;50.042;8.968;2022-09-03T03:46:39;20.10;48.80
30999;DHT22;20549;50.042;8.968;2022-09-03T03:49:05;20.10;48.80
30999;DHT22;20549;50.042;8.968;2022-09-03T03:51:34;20.10;48.90
30999;DHT22;20549;50.042;8.968;2022-09-03T03:54:00;20.10;48.80
30999;DHT22;20549;50.042;8.968;2022-09-03T03:56:27;20.10;48.90
30999;DHT22;20549;50.042;8.968;2022-09-03T03:58:54;20.10;49.00
30999;DHT22;20549;50.042;8.968;2022-09-03T04:01:22;20.10;48.90
30999;DHT22;20549;50.042;8.968;2022-09-03T04:03:47;20.10;49.00
30999;DHT22;20549;50.042;8.968;2022-09-03T04:06:14;20.10;49.00
30999;DHT22;20549;50.042;8.968;2022-09-03T04:08:41;20.10;49.00
30999;DHT22;20549;50.042;8.968;2022-09-03T04:11:08;20.10;49.00
30999;DHT22;20549;50.042;8.968;2022-09-03T04:13:34;20.10;49.00
30999;DHT22;20549;50.042;8.968;2022-09-03T04:16:06;20.10;49.60
30999;DHT22;20549;50.042;8.968;2022-09-03T04:18:32;20.10;49.10
30999;DHT22;20549;50.042;8.968;2022-09-03T04:21:02;20.10;49.10
30999;DHT22;20549;50.042;8.968;2022-09-03T04:23:31;20.10;49.20
30999;DHT22;20549;50.042;8.968;2022-09-03T04:25:58;20.10;49.20
30999;DHT22;20549;50.042;8.968;2022-09-03T04:28:24;20.00;49.10
30999;DHT22;20549;50.042;8.968;2022-09-03T04:30:51;20.00;49.10
30999;DHT22;20549;50.042;8.968;2022-09-03T04:33:17;20.00;49.20
30999;DHT22;20549;50.042;8.968;2022-09-03T04:35:44;20.00;49.20
30999;DHT22;20549;50.042;8.968;2022-09-03T04:38:10;20.00;49.20
30999;DHT22;20549;50.042;8.968;2022-09-03T04:40:37;20.00;49.20
30999;DHT22;20549;50.042;8.968;2022-09-03T04:43:04;19.90;49.20
30999;DHT22;20549;50.042;8.968;2022-09-03T04:45:30;19.90;49.20
30999;DHT22;20549;50.042;8.968;2022-09-03T04:48:00;19.90;49.40
30999;DHT22;20549;50.042;8.968;2022-09-03T04:50:26;19.80;49.30
30999;DHT22;20549;50.042;8.968;2022-09-03T04:52:53;19.70;49.50
30999;DHT22;20549;50.042;8.968;2022-09-03T04:55:19;19.70;49.50
30999;DHT22;20549;50.042;8.968;2022-09-03T04:57:46;19.60;49.60
30999;DHT22;20549;50.042;8.968;2022-09-03T05:00:12;19.60;49.80
30999;DHT22;20549;50.042;8.968;2022-09-03T05:02:39;19.50;49.90
30999;DHT22;20549;50.042;8.968;2022-09-03T05:05:06;19.50;50.10
30999;DHT22;20549;50.042;8.968;2022-09-03T05:07:32;19.50;50.20
30999;DHT22;20549;50.042;8.968;2022-09-03T05:09:59;19.50;50.30
30999;DHT22;20549;50.042;8.968;2022-09-03T05:12:25;19.50;50.40
30999;DHT22;20549;50.042;8.968;2022-09-03T05:14:52;19.50;50.50
30999;DHT22;20549;50.042;8.968;2022-09-03T05:17:19;19.50;50.60
30999;DHT22;20549;50.042;8.968;2022-09-03T05:19:45;19.50;50.70
30999;DHT22;20549;50.042;8.968;2022-09-03T05:22:12;19.50;50.80
30999;DHT22;20549;50.042;8.968;2022-09-03T05:24:38;19.50;50.80
30999;DHT22;20549;50.042;8.968;2022-09-03T05:27:05;19.60;50.80
30999;DHT22;20549;50.042;8.968;2022-09-03T05:29:31;19.60;51.00
30999;DHT22;20549;50.042;8.968;2022-09-03T05:31:58;19.60;51.00
30999;DHT22;20549;50.042;8.968;2022-09-03T05:34:25;19.60;51.00
30999;DHT22;20549;50.042;8.968;2022-09-03T05:36:51;19.60;51.00
30999;DHT22;20549;50.042;8.968;2022-09-03T05:39:18;19.60;51.00
30999;DHT22;20549;50.042;8.968;2022-09-03T05:41:44;19.60;51.10
30999;DHT22;20549;50.042;8.968;2022-09-03T05:44:11;19.70;51.10
30999;DHT22;20549;50.042;8.968;2022-09-03T05:46:38;19.70;51.20
30999;DHT22;20549;50.042;8.968;2022-09-03T05:49:05;19.70;51.20
30999;DHT22;20549;50.042;8.968;2022-09-03T05:51:32;19.70;51.20
30999;DHT22;20549;50.042;8.968;2022-09-03T05:53:57;19.80;51.30
30999;DHT22;20549;50.042;8.968;2022-09-03T05:56:25;19.80;51.90
30999;DHT22;20549;50.042;8.968;2022-09-03T05:58:52;19.80;51.20
30999;DHT22;20549;50.042;8.968;2022-09-03T06:01:21;19.90;51.30
30999;DHT22;20549;50.042;8.968;2022-09-03T06:03:44;19.80;51.20
30999;DHT22;20549;50.042;8.968;2022-09-03T06:06:11;19.90;51.20
30999;DHT22;20549;50.042;8.968;2022-09-03T06:08:37;19.90;51.20
30999;DHT22;20549;50.042;8.968;2022-09-03T06:11:04;19.90;51.20
30999;DHT22;20549;50.042;8.968;2022-09-03T06:13:30;19.90;51.30
30999;DHT22;20549;50.042;8.968;2022-09-03T06:15:57;19.90;51.30
30999;DHT22;20549;50.042;8.968;2022-09-03T06:18:24;19.90;51.40
30999;DHT22;20549;50.042;8.968;2022-09-03T06:20:56;19.90;51.30
30999;DHT22;20549;50.042;8.968;2022-09-03T06:23:19;19.90;51.30
30999;DHT22;20549;50.042;8.968;2022-09-03T06:25:46;19.90;51.30
30999;DHT22;20549;50.042;8.968;2022-09-03T06:28:12;19.90;51.40
30999;DHT22;20549;50.042;8.968;2022-09-03T06:30:39;19.90;51.40
30999;DHT22;20549;50.042;8.968;2022-09-03T06:33:06;19.90;51.40
30999;DHT22;20549;50.042;8.968;2022-09-03T06:35:32;20.00;51.50
30999;DHT22;20549;50.042;8.968;2022-09-03T06:37:59;20.00;51.60
30999;DHT22;20549;50.042;8.968;2022-09-03T06:40:25;20.00;51.50
30999;DHT22;20549;50.042;8.968;2022-09-03T06:42:55;20.00;51.50
30999;DHT22;20549;50.042;8.968;2022-09-03T06:45:21;20.00;51.50
30999;DHT22;20549;50.042;8.968;2022-09-03T06:47:48;20.10;51.60
30999;DHT22;20549;50.042;8.968;2022-09-03T06:50:14;20.00;51.50
30999;DHT22;20549;50.042;8.968;2022-09-03T06:52:41;20.10;51.60
30999;DHT22;20549;50.042;8.968;2022-09-03T06:55:08;20.00;51.60
30999;DHT22;20549;50.042;8.968;2022-09-03T06:57:34;20.10;51.80
30999;DHT22;20549;50.042;8.968;2022-09-03T07:00:01;20.10;52.20
30999;DHT22;20549;50.042;8.968;2022-09-03T07:02:27;20.10;52.30
30999;DHT22;20549;50.042;8.968;2022-09-03T07:04:54;20.10;52.60
30999;DHT22;20549;50.042;8.968;2022-09-03T07:07:21;20.10;52.90
30999;DHT22;20549;50.042;8.968;2022-09-03T07:09:47;20.10;53.30
30999;DHT22;20549;50.042;8.968;2022-09-03T07:12:14;20.10;53.30
30999;DHT22;20549;50.042;8.968;2022-09-03T07:14:40;20.00;53.60
30999;DHT22;20549;50.042;8.968;2022-09-03T07:17:07;20.00;53.70
30999;DHT22;20549;50.042;8.968;2022-09-03T07:19:34;20.00;54.10
30999;DHT22;20549;50.042;8.968;2022-09-03T07:22:00;19.90;54.20
30999;DHT22;20549;50.042;8.968;2022-09-03T07:24:27;19.90;54.30
30999;DHT22;20549;50.042;8.968;2022-09-03T07:26:53;19.90;54.50
30999;DHT22;20549;50.042;8.968;2022-09-03T07:29:20;19.90;54.90
30999;DHT22;20549;50.042;8.968;2022-09-03T07:31:47;19.90;55.30
30999;DHT22;20549;50.042;8.968;2022-09-03T07:34:13;19.90;55.70
30999;DHT22;20549;50.042;8.968;2022-09-03T07:36:40;19.90;55.70
30999;DHT22;20549;50.042;8.968;2022-09-03T07:39:09;19.90;55.70
30999;DHT22;20549;50.042;8.968;2022-09-03T07:41:35;20.00;56.20
30999;DHT22;20549;50.042;8.968;2022-09-03T07:44:02;20.00;56.40
30999;DHT22;20549;50.042;8.968;2022-09-03T07:46:28;20.00;56.60
30999;DHT22;20549;50.042;8.968;2022-09-03T07:48:56;20.10;56.90
30999;DHT22;20549;50.042;8.968;2022-09-03T07:51:25;20.20;56.90
30999;DHT22;20549;50.042;8.968;2022-09-03T07:53:52;20.30;57.00
30999;DHT22;20549;50.042;8.968;2022-09-03T07:56:17;20.40;57.20
30999;DHT22;20549;50.042;8.968;2022-09-03T07:58:44;20.60;57.50
30999;DHT22;20549;50.042;8.968;2022-09-03T08:01:11;20.80;57.40
30999;DHT22;20549;50.042;8.968;2022-09-03T08:03:38;21.00;57.50
30999;DHT22;20549;50.042;8.968;2022-09-03T08:06:05;21.20;57.50
30999;DHT22;20549;50.042;8.968;2022-09-03T08:08:31;21.50;57.40
30999;DHT22;20549;50.042;8.968;2022-09-03T08:11:17;21.80;57.10
30999;DHT22;20549;50.042;8.968;2022-09-03T08:13:48;22.00;56.70
30999;DHT22;20549;50.042;8.968;2022-09-03T08:16:12;22.30;56.30
30999;DHT22;20549;50.042;8.968;2022-09-03T08:18:38;22.40;55.50
30999;DHT22;20549;50.042;8.968;2022-09-03T08:21:14;22.60;55.20
30999;DHT22;20549;50.042;8.968;2022-09-03T08:23:40;22.70;55.10
30999;DHT22;20549;50.042;8.968;2022-09-03T08:26:06;22.90;55.00
30999;DHT22;20549;50.042;8.968;2022-09-03T08:28:33;22.90;54.70
30999;DHT22;20549;50.042;8.968;2022-09-03T08:31:15;23.00;54.60
30999;DHT22;20549;50.042;8.968;2022-09-03T08:33:42;23.10;54.60
30999;DHT22;20549;50.042;8.968;2022-09-03T08:36:19;23.10;54.30
30999;DHT22;20549;50.042;8.968;2022-09-03T08:38:43;23.20;54.20
30999;DHT22;20549;50.042;8.968;2022-09-03T08:41:27;23.10;53.80
30999;DHT22;20549;50.042;8.968;2022-09-03T08:44:08;22.90;53.40
30999;DHT22;20549;50.042;8.968;2022-09-03T08:46:31;22.70;53.40
30999;DHT22;20549;50.042;8.968;2022-09-03T08:48:52;22.50;53.70
30999;DHT22;20549;50.042;8.968;2022-09-03T08:51:18;22.30;54.10
30999;DHT22;20549;50.042;8.968;2022-09-03T08:53:51;22.10;54.30
30999;DHT22;20549;50.042;8.968;2022-09-03T08:56:20;21.90;54.60
30999;DHT22;20549;50.042;8.968;2022-09-03T08:58:44;21.90;55.30
30999;DHT22;20549;50.042;8.968;2022-09-03T09:06:36;22.10;56.70
30999;DHT22;20549;50.042;8.968;2022-09-03T09:10:15;22.40;56.80
30999;DHT22;20549;50.042;8.968;2022-09-03T09:12:00;22.80;57.30
30999;DHT22;20549;50.042;8.968;2022-09-03T09:17:21;23.60;56.00
30999;DHT22;20549;50.042;8.968;2022-09-03T09:19:57;24.10;55.50
30999;DHT22;20549;50.042;8.968;2022-09-03T09:24:48;24.90;54.10
30999;DHT22;20549;50.042;8.968;2022-09-03T09:27:15;25.40;54.00
30999;DHT22;20549;50.042;8.968;2022-09-03T09:29:47;25.90;54.20
30999;DHT22;20549;50.042;8.968;2022-09-03T09:32:13;26.40;53.50
30999;DHT22;20549;50.042;8.968;2022-09-03T09:34:40;26.90;52.60
30999;DHT22;20549;50.042;8.968;2022-09-03T09:37:10;27.30;51.70
30999;DHT22;20549;50.042;8.968;2022-09-03T09:39:36;27.60;50.70
30999;DHT22;20549;50.042;8.968;2022-09-03T09:42:09;27.80;49.90
30999;DHT22;20549;50.042;8.968;2022-09-03T09:44:35;27.80;48.90
30999;DHT22;20549;50.042;8.968;2022-09-03T09:47:11;27.80;48.40
30999;DHT22;20549;50.042;8.968;2022-09-03T09:49:37;27.70;48.10
30999;DHT22;20549;50.042;8.968;2022-09-03T09:52:10;27.60;48.20
30999;DHT22;20549;50.042;8.968;2022-09-03T09:54:35;27.50;48.20
30999;DHT22;20549;50.042;8.968;2022-09-03T09:57:06;27.40;48.30
30999;DHT22;20549;50.042;8.968;2022-09-03T09:59:31;27.40;48.20
30999;DHT22;20549;50.042;8.968;2022-09-03T10:04:30;27.40;48.20
30999;DHT22;20549;50.042;8.968;2022-09-03T10:09:42;27.40;47.90
30999;DHT22;20549;50.042;8.968;2022-09-03T10:14:47;27.30;47.50
30999;DHT22;20549;50.042;8.968;2022-09-03T10:20:06;27.20;47.40
30999;DHT22;20549;50.042;8.968;2022-09-03T10:22:50;27.00;47.40
30999;DHT22;20549;50.042;8.968;2022-09-03T10:25:14;26.90;47.40
30999;DHT22;20549;50.042;8.968;2022-09-03T10:27:41;26.70;47.30
30999;DHT22;20549;50.042;8.968;2022-09-03T10:30:07;26.50;47.40
30999;DHT22;20549;50.042;8.968;2022-09-03T10:35:28;26.10;47.40
30999;DHT22;20549;50.042;8.968;2022-09-03T10:38:40;25.80;48.50
30999;DHT22;20549;50.042;8.968;2022-09-03T10:40:50;25.50;48.70
30999;DHT22;20549;50.042;8.968;2022-09-03T10:46:15;24.80;49.50
30999;DHT22;20549;50.042;8.968;2022-09-03T10:51:39;24.10;51.50
30999;DHT22;20549;50.042;8.968;2022-09-03T10:54:25;24.00;52.40
30999;DHT22;20549;50.042;8.968;2022-09-03T10:57:02;23.90;53.10
30999;DHT22;20549;50.042;8.968;2022-09-03T11:05:08;23.80;52.90
30999;DHT22;20549;50.042;8.968;2022-09-03T11:10:20;23.80;53.00
30999;DHT22;20549;50.042;8.968;2022-09-03T11:15:50;23.80;53.30
30999;DHT22;20549;50.042;8.968;2022-09-03T11:18:26;23.90;53.40
30999;DHT22;20549;50.042;8.968;2022-09-03T11:20:48;24.00;53.40
30999;DHT22;20549;50.042;8.968;2022-09-03T11:23:14;24.10;53.40
30999;DHT22;20549;50.042;8.968;2022-09-03T11:25:42;24.20;53.30
30999;DHT22;20549;50.042;8.968;2022-09-03T11:30:55;24.50;53.30
30999;DHT22;20549;50.042;8.968;2022-09-03T11:33:18;24.60;53.20
30999;DHT22;20549;50.042;8.968;2022-09-03T11:35:45;24.80;53.60
30999;DHT22;20549;50.042;8.968;2022-09-03T11:41:09;25.20;52.90
30999;DHT22;20549;50.042;8.968;2022-09-03T11:43:11;25.50;52.70
30999;DHT22;20549;50.042;8.968;2022-09-03T11:45:37;25.70;52.50
30999;DHT22;20549;50.042;8.968;2022-09-03T11:48:18;26.00;52.40
30999;DHT22;20549;50.042;8.968;2022-09-03T11:50:50;26.10;52.10
30999;DHT22;20549;50.042;8.968;2022-09-03T11:53:09;26.40;51.80
30999;DHT22;20549;50.042;8.968;2022-09-03T11:58:28;26.70;51.10
30999;DHT22;20549;50.042;8.968;2022-09-03T12:00:52;26.80;50.90
30999;DHT22;20549;50.042;8.968;2022-09-03T12:03:20;26.90;50.50
30999;DHT22;20549;50.042;8.968;2022-09-03T12:05:48;26.90;50.30
30999;DHT22;20549;50.042;8.968;2022-09-03T12:08:21;26.90;49.90
30999;DHT22;20549;50.042;8.968;2022-09-03T12:11:07;26.90;49.80
30999;DHT22;20549;50.042;8.968;2022-09-03T12:14:29;26.90;49.60
30999;DHT22;20549;50.042;8.968;2022-09-03T12:18:59;26.80;49.40
30999;DHT22;20549;50.042;8.968;2022-09-03T12:21:22;26.80;49.50
30999;DHT22;20549;50.042;8.968;2022-09-03T12:23:51;26.70;49.40
30999;DHT22;20549;50.042;8.968;2022-09-03T12:26:22;26.60;49.50
30999;DHT22;20549;50.042;8.968;2022-09-03T12:28:56;26.60;49.50
30999;DHT22;20549;50.042;8.968;2022-09-03T12:31:23;26.50;49.70
30999;DHT22;20549;50.042;8.968;2022-09-03T12:33:53;26.50;49.80
30999;DHT22;20549;50.042;8.968;2022-09-03T12:36:21;26.50;49.90
30999;DHT22;20549;50.042;8.968;2022-09-03T12:38:45;26.40;49.70
30999;DHT22;20549;50.042;8.968;2022-09-03T12:41:18;26.40;49.80
30999;DHT22;20549;50.042;8.968;2022-09-03T12:43:49;26.40;49.90
30999;DHT22;20549;50.042;8.968;2022-09-03T12:46:14;26.40;49.90
30999;DHT22;20549;50.042;8.968;2022-09-03T12:48:46;26.30;50.00
30999;DHT22;20549;50.042;8.968;2022-09-03T12:51:07;26.40;50.30
30999;DHT22;20549;50.042;8.968;2022-09-03T12:53:33;26.40;50.30
30999;DHT22;20549;50.042;8.968;2022-09-03T12:56:00;26.40;50.30
30999;DHT22;20549;50.042;8.968;2022-09-03T13:01:08;26.50;50.20
30999;DHT22;20549;50.042;8.968;2022-09-03T13:03:41;26.50;50.20
30999;DHT22;20549;50.042;8.968;2022-09-03T13:06:08;26.60;50.10
30999;DHT22;20549;50.042;8.968;2022-09-03T13:08:37;26.70;50.10
30999;DHT22;20549;50.042;8.968;2022-09-03T13:11:00;26.70;50.00
30999;DHT22;20549;50.042;8.968;2022-09-03T13:13:30;26.80;50.00
30999;DHT22;20549;50.042;8.968;2022-09-03T13:18:59;26.90;49.70
30999;DHT22;20549;50.042;8.968;2022-09-03T13:21:40;26.90;49.60
30999;DHT22;20549;50.042;8.968;2022-09-03T13:24:18;26.90;49.40
30999;DHT22;20549;50.042;8.968;2022-09-03T13:32:16;26.80;49.20
30999;DHT22;20549;50.042;8.968;2022-09-03T13:34:39;26.70;49.30
30999;DHT22;20549;50.042;8.968;2022-09-03T13:37:32;26.60;49.30
30999;DHT22;20549;50.042;8.968;2022-09-03T13:40:02;26.60;49.40
30999;DHT22;20549;50.042;8.968;2022-09-03T13:42:32;26.50;49.50
30999;DHT22;20549;50.042;8.968;2022-09-03T13:45:22;26.50;49.60
30999;DHT22;20549;50.042;8.968;2022-09-03T13:47:27;26.50;49.70
30999;DHT22;20549;50.042;8.968;2022-09-03T13:52:44;26.50;49.80
30999;DHT22;20549;50.042;8.968;2022-09-03T13:55:17;26.50;50.00
30999;DHT22;20549;50.042;8.968;2022-09-03T13:57:48;26.50;50.00
30999;DHT22;20549;50.042;8.968;2022-09-03T14:00:21;26.60;50.00
30999;DHT22;20549;50.042;8.968;2022-09-03T14:02:53;26.70;50.10
30999;DHT22;20549;50.042;8.968;2022-09-03T14:13:20;27.20;49.80
30999;DHT22;20549;50.042;8.968;2022-09-03T14:15:46;27.40;49.70
30999;DHT22;20549;50.042;8.968;2022-09-03T14:18:43;27.50;49.50
30999;DHT22;20549;50.042;8.968;2022-09-03T14:21:12;27.60;49.40
30999;DHT22;20549;50.042;8.968;2022-09-03T14:23:54;27.80;49.40
30999;DHT22;20549;50.042;8.968;2022-09-03T14:26:18;27.90;49.30
30999;DHT22;20549;50.042;8.968;2022-09-03T14:28:45;28.00;49.30
30999;DHT22;20549;50.042;8.968;2022-09-03T14:33:58;28.20;49.00
30999;DHT22;20549;50.042;8.968;2022-09-03T14:39:21;28.40;48.70
30999;DHT22;20549;50.042;8.968;2022-09-03T15:00:29;29.00;48.10
30999;DHT22;20549;50.042;8.968;2022-09-03T15:03:09;29.00;47.60
30999;DHT22;20549;50.042;8.968;2022-09-03T15:05:48;29.10;47.80
30999;DHT22;20549;50.042;8.968;2022-09-03T15:11:20;29.10;47.80
30999;DHT22;20549;50.042;8.968;2022-09-03T15:13:50;29.10;47.80
30999;DHT22;20549;50.042;8.968;2022-09-03T15:19:10;29.20;47.70
30999;DHT22;20549;50.042;8.968;2022-09-03T15:21:57;29.20;47.60
30999;DHT22;20549;50.042;8.968;2022-09-03T15:24:36;29.20;47.50
30999;DHT22;20549;50.042;8.968;2022-09-03T15:27:09;29.20;47.40
30999;DHT22;20549;50.042;8.968;2022-09-03T15:29:42;29.20;47.30
30999;DHT22;20549;50.042;8.968;2022-09-03T15:32:16;29.20;47.40
30999;DHT22;20549;50.042;8.968;2022-09-03T15:35:03;29.10;47.40
30999;DHT22;20549;50.042;8.968;2022-09-03T15:37:35;29.00;47.40
30999;DHT22;20549;50.042;8.968;2022-09-03T15:40:09;29.00;47.40
30999;DHT22;20549;50.042;8.968;2022-09-03T15:42:25;28.90;47.40
30999;DHT22;20549;50.042;8.968;2022-09-03T15:44:53;28.80;47.50
30999;DHT22;20549;50.042;8.968;2022-09-03T15:55:29;28.40;47.70
30999;DHT22;20549;50.042;8.968;2022-09-03T15:57:59;28.20;47.70
30999;DHT22;20549;50.042;8.968;2022-09-03T16:00:25;28.10;47.90
30999;DHT22;20549;50.042;8.968;2022-09-03T16:02:59;27.90;48.00
30999;DHT22;20549;50.042;8.968;2022-09-03T16:05:34;27.80;48.30
30999;DHT22;20549;50.042;8.968;2022-09-03T16:07:57;27.60;48.40
30999;DHT22;20549;50.042;8.968;2022-09-03T16:10:20;27.50;48.60
30999;DHT22;20549;50.042;8.968;2022-09-03T16:13:30;27.40;48.80
30999;DHT22;20549;50.042;8.968;2022-09-03T16:15:42;27.40;49.00
30999;DHT22;20549;50.042;8.968;2022-09-03T16:18:09;27.30;49.20
30999;DHT22;20549;50.042;8.968;2022-09-03T16:20:43;27.20;49.30
30999;DHT22;20549;50.042;8.968;2022-09-03T16:23:22;27.20;49.40
30999;DHT22;20549;50.042;8.968;2022-09-03T16:25:51;27.20;49.60
30999;DHT22;20549;50.042;8.968;2022-09-03T16:28:35;27.20;49.60
30999;DHT22;20549;50.042;8.968;2022-09-03T16:44:08;26.80;50.00
30999;DHT22;20549;50.042;8.968;2022-09-03T16:46:45;26.70;50.10
30999;DHT22;20549;50.042;8.968;2022-09-03T16:52:14;26.50;50.40
30999;DHT22;20549;50.042;8.968;2022-09-03T16:54:47;26.40;50.50
30999;DHT22;20549;50.042;8.968;2022-09-03T16:57:42;26.40;50.70
30999;DHT22;20549;50.042;8.968;2022-09-03T17:00:08;26.30;50.80
30999;DHT22;20549;50.042;8.968;2022-09-03T17:02:57;26.20;51.10
30999;DHT22;20549;50.042;8.968;2022-09-03T17:14:04;26.10;51.40
30999;DHT22;20549;50.042;8.968;2022-09-03T17:18:56;26.10;51.70
30999;DHT22;20549;50.042;8.968;2022-09-03T17:21:54;26.10;51.70
30999;DHT22;20549;50.042;8.968;2022-09-03T17:29:15;25.90;52.00
30999;DHT22;20549;50.042;8.968;2022-09-03T17:34:49;25.80;52.10
30999;DHT22;20549;50.042;8.968;2022-09-03T17:39:55;25.70;51.50
30999;DHT22;20549;50.042;8.968;2022-09-03T17:42:28;25.70;52.30
30999;DHT22;20549;50.042;8.968;2022-09-03T17:50:24;25.50;52.50
30999;DHT22;20549;50.042;8.968;2022-09-03T17:53:02;25.40;52.60
30999;DHT22;20549;50.042;8.968;2022-09-03T17:58:16;25.30;52.90
30999;DHT22;20549;50.042;8.968;2022-09-03T18:00:52;25.20;53.00
30999;DHT22;20549;50.042;8.968;2022-09-03T18:03:26;25.10;53.10
30999;DHT22;20549;50.042;8.968;2022-09-03T18:05:56;25.10;53.20
30999;DHT22;20549;50.042;8.968;2022-09-03T18:11:17;24.90;53.40
30999;DHT22;20549;50.042;8.968;2022-09-03T18:14:14;24.80;53.50
30999;DHT22;20549;50.042;8.968;2022-09-03T18:16:40;24.70;53.70
30999;DHT22;20549;50.042;8.968;2022-09-03T18:19:13;24.60;53.80
30999;DHT22;20549;50.042;8.968;2022-09-03T18:21:36;24.50;54.00
30999;DHT22;20549;50.042;8.968;2022-09-03T18:28:02;24.30;54.40
30999;DHT22;20549;50.042;8.968;2022-09-03T18:30:02;24.10;54.50
30999;DHT22;20549;50.042;8.968;2022-09-03T18:35:06;24.00;54.70
30999;DHT22;20549;50.042;8.968;2022-09-03T18:37:51;23.80;55.10
30999;DHT22;20549;50.042;8.968;2022-09-03T18:40:38;23.70;55.20
30999;DHT22;20549;50.042;8.968;2022-09-03T18:43:33;23.60;55.30
30999;DHT22;20549;50.042;8.968;2022-09-03T18:46:30;23.50;55.40
30999;DHT22;20549;50.042;8.968;2022-09-03T18:49:22;23.40;55.50
30999;DHT22;20549;50.042;8.968;2022-09-03T18:52:18;23.30;55.60
30999;DHT22;20549;50.042;8.968;2022-09-03T18:55:19;23.30;55.80
30999;DHT22;20549;50.042;8.968;2022-09-03T18:58:27;23.20;55.80
30999;DHT22;20549;50.042;8.968;2022-09-03T19:01:19;23.10;55.90
30999;DHT22;20549;50.042;8.968;2022-09-03T19:07:19;22.90;56.10
30999;DHT22;20549;50.042;8.968;2022-09-03T19:10:04;22.80;56.10
30999;DHT22;20549;50.042;8.968;2022-09-03T19:13:06;22.80;56.30
30999;DHT22;20549;50.042;8.968;2022-09-03T19:15:50;22.60;56.40